sensor_id;sensor_type;location;lat;lon;timestamp;pressure;altitude;pressure_sealevel;temperature;humidity
50854;BME280;44154;45.506;-122.806;2022-09-29T00:00:12;100651.31;;;25.80;42.54
50854;BME280;44154;45.506;-122.806;2022-09-29T00:02:39;100677.44;;;25.93;42.29
50854;BME280;44154;45.506;-122.806;2022-09-29T00:05:05;100673.59;;;25.94;42.45
50854;BME280;44154;45.506;-122.806;2022-09-29T00:07:32;100676.88;;;25.96;42.41
50854;BME280;44154;45.506;-122.806;2022-09-29T00:09:58;100660.41;;;25.86;42.39
50854;BME280;44154;45.506;-122.806;2022-09-29T00:12:24;100667.81;;;25.91;42.28
50854;BME280;44154;45.506;-122.806;2022-09-29T00:14:51;100679.38;;;25.98;41.92
50854;BME280;44154;45.506;-122.806;2022-09-29T00:17:17;100608.16;;;25.55;42.02
50854;BME280;44154;45.506;-122.806;2022-09-29T00:19:43;100666.47;;;25.93;41.98
50854;BME280;44154;45.506;-122.806;2022-09-29T00:22:09;100661.50;;;25.90;42.08
50854;BME280;44154;45.506;-122.806;2022-09-29T00:24:35;100651.09;;;25.87;41.76
50854;BME280;44154;45.506;-122.806;2022-09-29T00:27:01;100643.38;;;25.84;41.87
50854;BME280;44154;45.506;-122.806;2022-09-29T00:29:28;100658.78;;;25.95;41.84
50854;BME280;44154;45.506;-122.806;2022-09-29T00:31:54;100633.53;;;25.83;41.70
50854;BME280;44154;45.506;-122.806;2022-09-29T00:34:20;100661.25;;;25.97;41.84
50854;BME280;44154;45.506;-122.806;2022-09-29T00:36:46;100666.25;;;26.05;42.02
50854;BME280;44154;45.506;-122.806;2022-09-29T00:39:12;100666.25;;;26.05;42.17
50854;BME280;44154;45.506;-122.806;2022-09-29T00:41:40;100656.09;;;26.01;41.95
50854;BME280;44154;45.506;-122.806;2022-09-29T00:46:40;100672.56;;;26.06;42.22
50854;BME280;44154;45.506;-122.806;2022-09-29T00:49:18;100656.31;;;25.94;41.86
50854;BME280;44154;45.506;-122.806;2022-09-29T00:51:58;100671.47;;;26.07;41.89
50854;BME280;44154;45.506;-122.806;2022-09-29T00:54:30;100671.19;;;26.03;41.09
50854;BME280;44154;45.506;-122.806;2022-09-29T00:56:59;100686.56;;;26.09;41.24
50854;BME280;44154;45.506;-122.806;2022-09-29T00:59:36;100684.66;;;26.10;40.99
50854;BME280;44154;45.506;-122.806;2022-09-29T01:02:05;100660.44;;;25.96;40.88
50854;BME280;44154;45.506;-122.806;2022-09-29T01:04:31;100683.56;;;26.11;40.70
50854;BME280;44154;45.506;-122.806;2022-09-29T01:06:57;100673.06;;;25.97;40.84
50854;BME280;44154;45.506;-122.806;2022-09-29T01:09:32;100674.47;;;26.05;40.38
50854;BME280;44154;45.506;-122.806;2022-09-29T01:12:00;100674.69;;;25.98;40.12
50854;BME280;44154;45.506;-122.806;2022-09-29T01:14:28;100692.31;;;26.08;39.81
50854;BME280;44154;45.506;-122.806;2022-09-29T01:16:55;100686.81;;;26.03;39.91
50854;BME280;44154;45.506;-122.806;2022-09-29T01:22:43;100682.44;;;26.07;39.74
50854;BME280;44154;45.506;-122.806;2022-09-29T01:31:23;100687.94;;;26.07;39.98
50854;BME280;44154;45.506;-122.806;2022-09-29T01:34:18;100695.34;;;26.06;39.75
50854;BME280;44154;45.506;-122.806;2022-09-29T01:39:50;100691.75;;;26.01;39.67
50854;BME280;44154;45.506;-122.806;2022-09-29T01:42:25;100696.69;;;26.04;39.25
50854;BME280;44154;45.506;-122.806;2022-09-29T01:45:01;100696.97;;;26.02;39.63
50854;BME280;44154;45.506;-122.806;2022-09-29T01:47:38;100685.13;;;25.96;39.69
50854;BME280;44154;45.506;-122.806;2022-09-29T01:50:12;100691.75;;;26.01;39.64
50854;BME280;44154;45.506;-122.806;2022-09-29T01:52:45;100679.84;;;25.85;39.43
50854;BME280;44154;45.506;-122.806;2022-09-29T01:55:17;100699.63;;;25.97;39.71
50854;BME280;44154;45.506;-122.806;2022-09-29T02:00:22;100696.09;;;25.96;40.00
50854;BME280;44154;45.506;-122.806;2022-09-29T02:02:55;100698.28;;;26.00;40.48
50854;BME280;44154;45.506;-122.806;2022-09-29T02:05:36;100704.84;;;25.93;40.53
50854;BME280;44154;45.506;-122.806;2022-09-29T02:08:17;100704.63;;;26.00;40.58
50854;BME280;44154;45.506;-122.806;2022-09-29T02:11:02;100701.63;;;26.02;40.46
50854;BME280;44154;45.506;-122.806;2022-09-29T02:13:37;100705.19;;;26.02;40.84
50854;BME280;44154;45.506;-122.806;2022-09-29T02:16:09;100687.56;;;25.93;40.90
50854;BME280;44154;45.506;-122.806;2022-09-29T02:18:43;100687.81;;;25.91;41.01
50854;BME280;44154;45.506;-122.806;2022-09-29T02:21:11;100684.81;;;25.93;40.72
50854;BME280;44154;45.506;-122.806;2022-09-29T02:23:37;100685.06;;;25.91;40.77
50854;BME280;44154;45.506;-122.806;2022-09-29T02:26:03;100706.59;;;26.05;41.39
50854;BME280;44154;45.506;-122.806;2022-09-29T02:28:30;100692.00;;;25.99;41.02
50854;BME280;44154;45.506;-122.806;2022-09-29T02:30:56;100678.78;;;25.91;41.12
50854;BME280;44154;45.506;-122.806;2022-09-29T02:33:24;100706.59;;;26.05;41.33
50854;BME280;44154;45.506;-122.806;2022-09-29T02:36:16;100716.47;;;26.11;41.28
50854;BME280;44154;45.506;-122.806;2022-09-29T02:53:46;100738.19;;;26.18;41.88
50854;BME280;44154;45.506;-122.806;2022-09-29T03:01:14;100746.16;;;26.19;42.69
50854;BME280;44154;45.506;-122.806;2022-09-29T03:03:41;100726.59;;;26.05;41.87
50854;BME280;44154;45.506;-122.806;2022-09-29T03:06:09;100729.06;;;26.02;41.82
50854;BME280;44154;45.506;-122.806;2022-09-29T03:08:36;100754.06;;;26.16;41.94
50854;BME280;44154;45.506;-122.806;2022-09-29T03:11:02;100752.94;;;26.11;41.92
50854;BME280;44154;45.506;-122.806;2022-09-29T03:13:28;100757.66;;;26.16;42.00
50854;BME280;44154;45.506;-122.806;2022-09-29T03:15:54;100757.34;;;26.12;42.07
50854;BME280;44154;45.506;-122.806;2022-09-29T03:18:20;100759.28;;;26.12;42.36
50854;BME280;44154;45.506;-122.806;2022-09-29T03:20:48;100765.03;;;26.16;42.82
50854;BME280;44154;45.506;-122.806;2022-09-29T03:23:14;100754.84;;;26.06;42.27
50854;BME280;44154;45.506;-122.806;2022-09-29T03:25:40;100755.97;;;26.10;42.14
50854;BME280;44154;45.506;-122.806;2022-09-29T03:28:07;100746.88;;;26.04;42.54
50854;BME280;44154;45.506;-122.806;2022-09-29T03:30:33;100697.59;;;25.72;42.37
50854;BME280;44154;45.506;-122.806;2022-09-29T03:32:59;100749.63;;;26.04;42.36
50854;BME280;44154;45.506;-122.806;2022-09-29T03:35:26;100763.16;;;26.21;42.71
50854;BME280;44154;45.506;-122.806;2022-09-29T03:37:56;100747.75;;;26.15;42.88
50854;BME280;44154;45.506;-122.806;2022-09-29T03:40:24;100755.19;;;26.20;42.76
50854;BME280;44154;45.506;-122.806;2022-09-29T03:42:50;100765.09;;;26.26;42.95
50854;BME280;44154;45.506;-122.806;2022-09-29T03:45:16;100759.06;;;26.24;43.02
50854;BME280;44154;45.506;-122.806;2022-09-29T03:47:42;100728.00;;;26.13;43.04
50854;BME280;44154;45.506;-122.806;2022-09-29T03:50:09;100735.44;;;26.18;42.60
50854;BME280;44154;45.506;-122.806;2022-09-29T03:52:35;100728.25;;;26.11;43.10
50854;BME280;44154;45.506;-122.806;2022-09-29T03:55:01;100760.44;;;26.31;42.61
50854;BME280;44154;45.506;-122.806;2022-09-29T03:57:27;100755.78;;;26.27;42.82
50854;BME280;44154;45.506;-122.806;2022-09-29T03:59:53;100734.88;;;26.16;42.74
50854;BME280;44154;45.506;-122.806;2022-09-29T04:02:20;100768.13;;;26.35;42.92
50854;BME280;44154;45.506;-122.806;2022-09-29T04:04:46;100769.78;;;26.30;42.78
50854;BME280;44154;45.506;-122.806;2022-09-29T04:07:12;100754.66;;;26.23;42.67
50854;BME280;44154;45.506;-122.806;2022-09-29T04:09:38;100747.19;;;26.13;42.37
50854;BME280;44154;45.506;-122.806;2022-09-29T04:12:04;100767.31;;;26.34;42.39
50854;BME280;44154;45.506;-122.806;2022-09-29T04:14:30;100760.97;;;26.28;42.47
50854;BME280;44154;45.506;-122.806;2022-09-29T04:16:57;100772.53;;;26.30;42.21
50854;BME280;44154;45.506;-122.806;2022-09-29T04:19:23;100753.84;;;26.27;43.11
50854;BME280;44154;45.506;-122.806;2022-09-29T04:21:49;100752.22;;;26.26;43.15
50854;BME280;44154;45.506;-122.806;2022-09-29T04:24:15;100706.50;;;26.00;43.31
50854;BME280;44154;45.506;-122.806;2022-09-29T04:26:41;100783.28;;;26.42;43.40
50854;BME280;44154;45.506;-122.806;2022-09-29T04:29:08;100760.75;;;26.35;43.55
50854;BME280;44154;45.506;-122.806;2022-09-29T04:31:35;100779.69;;;26.37;44.35
50854;BME280;44154;45.506;-122.806;2022-09-29T04:34:01;100730.69;;;26.03;44.93
50854;BME280;44154;45.506;-122.806;2022-09-29T04:36:27;100800.28;;;26.44;44.88
50854;BME280;44154;45.506;-122.806;2022-09-29T04:38:53;100797.53;;;26.44;44.94
50854;BME280;44154;45.506;-122.806;2022-09-29T04:41:20;100792.31;;;26.38;44.93
50854;BME280;44154;45.506;-122.806;2022-09-29T04:43:46;100733.38;;;25.97;45.00
50854;BME280;44154;45.506;-122.806;2022-09-29T04:46:13;100806.31;;;26.36;44.70
50854;BME280;44154;45.506;-122.806;2022-09-29T04:48:39;100790.91;;;26.30;44.75
50854;BME280;44154;45.506;-122.806;2022-09-29T04:51:05;100786.81;;;26.33;44.51
50854;BME280;44154;45.506;-122.806;2022-09-29T04:53:33;100784.34;;;26.36;44.59
50854;BME280;44154;45.506;-122.806;2022-09-29T04:56:04;100784.66;;;26.45;44.52
50854;BME280;44154;45.506;-122.806;2022-09-29T04:58:30;100788.78;;;26.47;44.50
50854;BME280;44154;45.506;-122.806;2022-09-29T05:01:06;100766.78;;;26.37;44.67
50854;BME280;44154;45.506;-122.806;2022-09-29T05:03:33;100780.53;;;26.47;44.88
50854;BME280;44154;45.506;-122.806;2022-09-29T05:05:59;100711.53;;;26.08;44.63
50854;BME280;44154;45.506;-122.806;2022-09-29T05:08:26;100768.75;;;26.47;45.37
50854;BME280;44154;45.506;-122.806;2022-09-29T05:10:52;100761.59;;;26.46;45.16
50854;BME280;44154;45.506;-122.806;2022-09-29T05:13:18;100775.34;;;26.56;44.81
50854;BME280;44154;45.506;-122.806;2022-09-29T05:15:46;100780.66;;;26.68;44.24
50854;BME280;44154;45.506;-122.806;2022-09-29T05:18:12;100777.84;;;26.63;44.15
50854;BME280;44154;45.506;-122.806;2022-09-29T05:20:38;100784.75;;;26.71;44.32
50854;BME280;44154;45.506;-122.806;2022-09-29T05:23:04;100783.94;;;26.70;43.87
50854;BME280;44154;45.506;-122.806;2022-09-29T05:25:36;100767.41;;;26.60;44.95
50854;BME280;44154;45.506;-122.806;2022-09-29T05:28:02;100761.13;;;26.59;45.10
50854;BME280;44154;45.506;-122.806;2022-09-29T05:30:29;100765.50;;;26.55;45.41
50854;BME280;44154;45.506;-122.806;2022-09-29T05:32:55;100759.16;;;26.55;45.44
50854;BME280;44154;45.506;-122.806;2022-09-29T05:35:21;100775.69;;;26.65;45.23
50854;BME280;44154;45.506;-122.806;2022-09-29T05:37:47;100795.75;;;26.71;45.37
50854;BME280;44154;45.506;-122.806;2022-09-29T05:40:14;100776.50;;;26.65;45.21
50854;BME280;44154;45.506;-122.806;2022-09-29T05:42:40;100757.81;;;26.52;45.13
50854;BME280;44154;45.506;-122.806;2022-09-29T05:45:07;100797.94;;;26.69;44.93
50854;BME280;44154;45.506;-122.806;2022-09-29T05:47:35;100778.13;;;26.61;44.60
50854;BME280;44154;45.506;-122.806;2022-09-29T05:50:01;100788.56;;;26.64;44.79
50854;BME280;44154;45.506;-122.806;2022-09-29T05:52:28;100785.81;;;26.59;44.56
50854;BME280;44154;45.506;-122.806;2022-09-29T05:54:54;100687.03;;;25.96;44.96
50854;BME280;44154;45.506;-122.806;2022-09-29T05:57:20;100767.09;;;26.46;45.14
50854;BME280;44154;45.506;-122.806;2022-09-29T05:59:46;100777.00;;;26.52;45.57
50854;BME280;44154;45.506;-122.806;2022-09-29T06:02:12;100779.47;;;26.54;45.62
50854;BME280;44154;45.506;-122.806;2022-09-29T06:04:38;100722.00;;;26.16;45.45
50854;BME280;44154;45.506;-122.806;2022-09-29T06:07:05;100790.75;;;26.57;45.24
50854;BME280;44154;45.506;-122.806;2022-09-29T06:09:33;100794.06;;;26.59;45.62
50854;BME280;44154;45.506;-122.806;2022-09-29T06:12:01;100767.13;;;26.51;45.51
50854;BME280;44154;45.506;-122.806;2022-09-29T06:14:28;100773.72;;;26.60;45.23
50854;BME280;44154;45.506;-122.806;2022-09-29T06:16:54;100767.13;;;26.51;45.50
50854;BME280;44154;45.506;-122.806;2022-09-29T06:19:20;100777.59;;;26.59;45.39
50854;BME280;44154;45.506;-122.806;2022-09-29T06:21:46;100709.91;;;26.17;45.50
50854;BME280;44154;45.506;-122.806;2022-09-29T06:24:13;100747.34;;;26.44;45.62
50854;BME280;44154;45.506;-122.806;2022-09-29T06:26:39;100752.28;;;26.47;45.53
50854;BME280;44154;45.506;-122.806;2022-09-29T06:29:05;100784.69;;;26.60;45.38
50854;BME280;44154;45.506;-122.806;2022-09-29T06:31:31;100755.56;;;26.49;45.08
50854;BME280;44154;45.506;-122.806;2022-09-29T06:34:03;100769.34;;;26.59;45.35
50854;BME280;44154;45.506;-122.806;2022-09-29T06:36:39;100774.28;;;26.57;44.99
50854;BME280;44154;45.506;-122.806;2022-09-29T06:39:24;100762.13;;;26.43;44.29
50854;BME280;44154;45.506;-122.806;2022-09-29T06:41:50;100782.22;;;26.59;44.15
50854;BME280;44154;45.506;-122.806;2022-09-29T06:44:20;100726.09;;;26.19;44.14
50854;BME280;44154;45.506;-122.806;2022-09-29T06:46:46;100754.72;;;26.38;44.25
50854;BME280;44154;45.506;-122.806;2022-09-29T06:49:13;100768.22;;;26.45;44.35
50854;BME280;44154;45.506;-122.806;2022-09-29T06:51:42;100779.19;;;26.50;43.94
50854;BME280;44154;45.506;-122.806;2022-09-29T06:54:10;100783.84;;;26.49;44.28
50854;BME280;44154;45.506;-122.806;2022-09-29T06:56:36;100754.72;;;26.38;44.33
50854;BME280;44154;45.506;-122.806;2022-09-29T06:59:02;100746.72;;;26.31;44.16
50854;BME280;44154;45.506;-122.806;2022-09-29T07:01:28;100758.84;;;26.41;44.18
50854;BME280;44154;45.506;-122.806;2022-09-29T07:03:55;100701.38;;;26.08;43.95
50854;BME280;44154;45.506;-122.806;2022-09-29T07:06:21;100703.31;;;26.08;44.04
50854;BME280;44154;45.506;-122.806;2022-09-29T07:08:52;100766.28;;;26.45;44.19
50854;BME280;44154;45.506;-122.806;2022-09-29T07:11:18;100751.75;;;26.45;43.96
50854;BME280;44154;45.506;-122.806;2022-09-29T07:13:45;100730.53;;;26.30;44.21
50854;BME280;44154;45.506;-122.806;2022-09-29T07:16:12;100737.41;;;26.33;43.93
50854;BME280;44154;45.506;-122.806;2022-09-29T07:18:40;100723.69;;;26.33;44.04
50854;BME280;44154;45.506;-122.806;2022-09-29T07:21:09;100738.53;;;26.42;43.69
50854;BME280;44154;45.506;-122.806;2022-09-29T07:23:36;100741.84;;;26.49;43.68
50854;BME280;44154;45.506;-122.806;2022-09-29T07:26:03;100750.94;;;26.49;43.67
50854;BME280;44154;45.506;-122.806;2022-09-29T07:28:30;100754.19;;;26.41;43.86
50854;BME280;44154;45.506;-122.806;2022-09-29T07:31:03;100763.25;;;26.47;43.69
50854;BME280;44154;45.506;-122.806;2022-09-29T07:33:31;100746.75;;;26.37;43.81
50854;BME280;44154;45.506;-122.806;2022-09-29T07:35:57;100747.31;;;26.34;43.52
50854;BME280;44154;45.506;-122.806;2022-09-29T07:38:27;100747.56;;;26.37;43.68
50854;BME280;44154;45.506;-122.806;2022-09-29T07:40:54;100758.84;;;26.41;43.84
50854;BME280;44154;45.506;-122.806;2022-09-29T07:43:20;100687.59;;;25.98;43.60
50854;BME280;44154;45.506;-122.806;2022-09-29T07:45:50;100743.97;;;26.31;43.84
50854;BME280;44154;45.506;-122.806;2022-09-29T07:48:17;100749.50;;;26.42;43.71
50854;BME280;44154;45.506;-122.806;2022-09-29T07:50:44;100752.25;;;26.42;43.36
50854;BME280;44154;45.506;-122.806;2022-09-29T07:53:11;100732.72;;;26.28;43.75
50854;BME280;44154;45.506;-122.806;2022-09-29T07:55:38;100753.38;;;26.41;43.52
50854;BME280;44154;45.506;-122.806;2022-09-29T07:58:05;100730.53;;;26.30;43.44
50854;BME280;44154;45.506;-122.806;2022-09-29T08:00:32;100737.44;;;26.38;43.26
50854;BME280;44154;45.506;-122.806;2022-09-29T08:03:02;100733.28;;;26.30;43.24
50854;BME280;44154;45.506;-122.806;2022-09-29T08:05:29;100747.56;;;26.37;43.32
50854;BME280;44154;45.506;-122.806;2022-09-29T08:08:03;100739.63;;;26.36;43.16
50854;BME280;44154;45.506;-122.806;2022-09-29T08:10:31;100744.28;;;26.35;43.23
50854;BME280;44154;45.506;-122.806;2022-09-29T08:12:58;100750.84;;;26.34;43.40
50854;BME280;44154;45.506;-122.806;2022-09-29T08:15:24;100752.78;;;26.34;43.29
50854;BME280;44154;45.506;-122.806;2022-09-29T08:17:54;100751.41;;;26.31;43.30
50854;BME280;44154;45.506;-122.806;2022-09-29T08:20:21;100726.09;;;26.13;43.54
50854;BME280;44154;45.506;-122.806;2022-09-29T08:22:48;100740.94;;;26.23;43.23
50854;BME280;44154;45.506;-122.806;2022-09-29T08:25:16;100760.44;;;26.31;43.75
50854;BME280;44154;45.506;-122.806;2022-09-29T08:27:42;100734.59;;;26.17;43.86
50854;BME280;44154;45.506;-122.806;2022-09-29T08:30:10;100754.41;;;26.29;43.68
50854;BME280;44154;45.506;-122.806;2022-09-29T08:32:36;100756.03;;;26.25;43.65
50854;BME280;44154;45.506;-122.806;2022-09-29T08:35:04;100758.22;;;26.23;43.52
50854;BME280;44154;45.506;-122.806;2022-09-29T08:37:30;100748.84;;;26.14;43.59
50854;BME280;44154;45.506;-122.806;2022-09-29T08:39:57;100756.53;;;26.17;43.13
50854;BME280;44154;45.506;-122.806;2022-09-29T08:42:34;100775.50;;;26.24;43.41
50854;BME280;44154;45.506;-122.806;2022-09-29T08:45:06;100774.13;;;26.21;43.32
50854;BME280;44154;45.506;-122.806;2022-09-29T08:47:44;100747.44;;;26.06;43.32
50854;BME280;44154;45.506;-122.806;2022-09-29T08:53:04;100772.44;;;26.15;43.23
50854;BME280;44154;45.506;-122.806;2022-09-29T08:58:01;100724.53;;;25.80;43.80
50854;BME280;44154;45.506;-122.806;2022-09-29T09:00:43;100759.22;;;26.02;43.68
50854;BME280;44154;45.506;-122.806;2022-09-29T09:03:36;100785.63;;;26.18;43.78
50854;BME280;44154;45.506;-122.806;2022-09-29T09:12:48;100803.16;;;26.17;43.27
50854;BME280;44154;45.506;-122.806;2022-09-29T09:20:13;100798.75;;;26.11;44.40
50854;BME280;44154;45.506;-122.806;2022-09-29T09:25:35;100785.59;;;26.08;44.95
50854;BME280;44154;45.506;-122.806;2022-09-29T09:28:17;100764.63;;;25.96;44.76
50854;BME280;44154;45.506;-122.806;2022-09-29T09:33:55;100795.53;;;26.19;44.70
50854;BME280;44154;45.506;-122.806;2022-09-29T09:36:36;100802.13;;;26.23;44.71
50854;BME280;44154;45.506;-122.806;2022-09-29T09:39:15;100770.47;;;26.05;44.65
50854;BME280;44154;45.506;-122.806;2022-09-29T09:41:48;100782.31;;;26.11;44.32
50854;BME280;44154;45.506;-122.806;2022-09-29T09:46:55;100797.16;;;26.20;43.89
50854;BME280;44154;45.506;-122.806;2022-09-29T09:49:26;100811.97;;;26.19;43.98
50854;BME280;44154;45.506;-122.806;2022-09-29T09:52:02;100784.47;;;26.04;43.83
50854;BME280;44154;45.506;-122.806;2022-09-29T09:54:33;100804.84;;;26.18;43.84
50854;BME280;44154;45.506;-122.806;2022-09-29T09:59:58;100810.84;;;26.15;44.01
50854;BME280;44154;45.506;-122.806;2022-09-29T10:02:28;100802.00;;;26.03;45.97
50854;BME280;44154;45.506;-122.806;2022-09-29T10:04:55;100814.41;;;26.10;46.15
50854;BME280;44154;45.506;-122.806;2022-09-29T10:07:24;100808.59;;;26.07;45.84
50854;BME280;44154;45.506;-122.806;2022-09-29T10:09:52;100816.22;;;26.00;45.91
50854;BME280;44154;45.506;-122.806;2022-09-29T10:12:23;100820.09;;;26.04;45.89
50854;BME280;44154;45.506;-122.806;2022-09-29T10:14:58;100826.34;;;25.99;45.99
50854;BME280;44154;45.506;-122.806;2022-09-29T10:17:31;100817.81;;;25.90;46.22
50854;BME280;44154;45.506;-122.806;2022-09-29T10:20:07;100831.78;;;25.94;45.97
50854;BME280;44154;45.506;-122.806;2022-09-29T10:22:34;100801.50;;;25.73;45.80
50854;BME280;44154;45.506;-122.806;2022-09-29T10:25:15;100830.66;;;25.90;45.76
50854;BME280;44154;45.506;-122.806;2022-09-29T10:27:46;100831.50;;;25.90;46.02
50854;BME280;44154;45.506;-122.806;2022-09-29T10:32:57;100835.59;;;25.88;45.83
50854;BME280;44154;45.506;-122.806;2022-09-29T10:35:36;100798.44;;;25.70;45.70
50854;BME280;44154;45.506;-122.806;2022-09-29T10:38:14;100836.41;;;25.83;45.52
50854;BME280;44154;45.506;-122.806;2022-09-29T10:40:59;100846.25;;;25.84;45.77
50854;BME280;44154;45.506;-122.806;2022-09-29T10:43:36;100845.16;;;25.85;45.38
50854;BME280;44154;45.506;-122.806;2022-09-29T10:46:05;100820.63;;;25.63;45.80
50854;BME280;44154;45.506;-122.806;2022-09-29T10:49:08;100846.78;;;25.81;45.81
50854;BME280;44154;45.506;-122.806;2022-09-29T10:51:36;100859.09;;;25.78;45.30
50854;BME280;44154;45.506;-122.806;2022-09-29T10:54:09;100842.09;;;25.76;45.80
50854;BME280;44154;45.506;-122.806;2022-09-29T10:56:46;100850.88;;;25.78;45.66
50854;BME280;44154;45.506;-122.806;2022-09-29T10:59:14;100852.78;;;25.78;45.66
50854;BME280;44154;45.506;-122.806;2022-09-29T11:01:50;100844.50;;;25.68;45.72
50854;BME280;44154;45.506;-122.806;2022-09-29T11:04:32;100856.84;;;25.70;45.91
50854;BME280;44154;45.506;-122.806;2022-09-29T11:07:11;100784.84;;;25.20;45.65
50854;BME280;44154;45.506;-122.806;2022-09-29T11:09:44;100852.09;;;25.60;45.87
50854;BME280;44154;45.506;-122.806;2022-09-29T11:12:34;100866.09;;;25.64;46.17
50854;BME280;44154;45.506;-122.806;2022-09-29T11:15:23;100862.47;;;25.53;46.82
50854;BME280;44154;45.506;-122.806;2022-09-29T11:17:50;100796.50;;;25.05;47.20
50854;BME280;44154;45.506;-122.806;2022-09-29T11:20:17;100792.91;;;25.05;47.09
50854;BME280;44154;45.506;-122.806;2022-09-29T11:36:54;100856.00;;;25.70;46.28
50854;BME280;44154;45.506;-122.806;2022-09-29T11:39:51;100832.84;;;25.50;45.79
50854;BME280;44154;45.506;-122.806;2022-09-29T11:42:28;100865.34;;;25.69;46.05
50854;BME280;44154;45.506;-122.806;2022-09-29T11:45:03;100857.31;;;25.62;45.97
50854;BME280;44154;45.506;-122.806;2022-09-29T11:47:54;100867.75;;;25.65;45.99
50854;BME280;44154;45.506;-122.806;2022-09-29T11:55:37;100866.41;;;25.68;46.11
50854;BME280;44154;45.506;-122.806;2022-09-29T12:14:29;100863.13;;;25.66;45.84
50854;BME280;44154;45.506;-122.806;2022-09-29T12:17:03;100858.72;;;25.65;45.35
50854;BME280;44154;45.506;-122.806;2022-09-29T12:19:36;100862.53;;;25.63;45.62
50854;BME280;44154;45.506;-122.806;2022-09-29T12:22:09;100819.00;;;25.35;45.67
50854;BME280;44154;45.506;-122.806;2022-09-29T12:24:49;100863.88;;;25.61;45.69
50854;BME280;44154;45.506;-122.806;2022-09-29T12:27:32;100863.63;;;25.62;45.67
50854;BME280;44154;45.506;-122.806;2022-09-29T12:30:22;100844.53;;;25.40;45.50
50854;BME280;44154;45.506;-122.806;2022-09-29T12:32:51;100887.22;;;25.63;45.48
50854;BME280;44154;45.506;-122.806;2022-09-29T12:38:18;100904.19;;;25.60;45.46
50854;BME280;44154;45.506;-122.806;2022-09-29T12:43:38;100893.41;;;25.54;45.71
50854;BME280;44154;45.506;-122.806;2022-09-29T12:46:38;100899.38;;;25.45;46.54
50854;BME280;44154;45.506;-122.806;2022-09-29T12:51:50;100899.66;;;25.44;46.48
50854;BME280;44154;45.506;-122.806;2022-09-29T12:54:40;100915.03;;;25.50;46.70
50854;BME280;44154;45.506;-122.806;2022-09-29T12:57:21;100914.81;;;25.57;46.21
50854;BME280;44154;45.506;-122.806;2022-09-29T13:00:07;100916.22;;;25.59;46.07
50854;BME280;44154;45.506;-122.806;2022-09-29T13:05:17;100914.63;;;25.63;46.17
50854;BME280;44154;45.506;-122.806;2022-09-29T13:16:04;100921.75;;;25.65;46.10
50854;BME280;44154;45.506;-122.806;2022-09-29T13:24:37;100927.25;;;25.65;46.37
50854;BME280;44154;45.506;-122.806;2022-09-29T13:27:09;100933.28;;;25.67;45.88
50854;BME280;44154;45.506;-122.806;2022-09-29T13:29:46;100927.78;;;25.61;46.13
50854;BME280;44154;45.506;-122.806;2022-09-29T13:32:14;100922.59;;;25.65;46.23
50854;BME280;44154;45.506;-122.806;2022-09-29T13:34:47;100931.06;;;25.63;46.04
50854;BME280;44154;45.506;-122.806;2022-09-29T13:37:17;100936.53;;;25.63;46.29
50854;BME280;44154;45.506;-122.806;2022-09-29T13:39:53;100942.03;;;25.63;46.12
50854;BME280;44154;45.506;-122.806;2022-09-29T13:42:37;100929.41;;;25.62;46.13
50854;BME280;44154;45.506;-122.806;2022-09-29T13:47:48;100916.75;;;25.56;45.66
50854;BME280;44154;45.506;-122.806;2022-09-29T14:01:00;100950.09;;;25.75;45.26
50854;BME280;44154;45.506;-122.806;2022-09-29T14:03:37;100957.59;;;25.85;45.10
50854;BME280;44154;45.506;-122.806;2022-09-29T14:06:16;100956.78;;;25.85;44.91
50854;BME280;44154;45.506;-122.806;2022-09-29T14:19:49;100961.94;;;25.81;45.43
50854;BME280;44154;45.506;-122.806;2022-09-29T14:27:56;100983.34;;;25.84;45.74
50854;BME280;44154;45.506;-122.806;2022-09-29T14:33:18;100990.50;;;25.85;45.69
50854;BME280;44154;45.506;-122.806;2022-09-29T14:36:06;100987.13;;;25.78;45.27
50854;BME280;44154;45.506;-122.806;2022-09-29T14:38:48;100979.72;;;25.78;45.83
50854;BME280;44154;45.506;-122.806;2022-09-29T14:41:29;100994.56;;;25.83;45.34
50854;BME280;44154;45.506;-122.806;2022-09-29T14:46:49;101005.88;;;25.86;45.90
50854;BME280;44154;45.506;-122.806;2022-09-29T14:55:42;101018.16;;;25.84;46.02
50854;BME280;44154;45.506;-122.806;2022-09-29T14:58:31;101014.34;;;25.85;46.18
50854;BME280;44154;45.506;-122.806;2022-09-29T15:03:51;101031.63;;;25.85;46.09
50854;BME280;44154;45.506;-122.806;2022-09-29T15:06:24;101031.88;;;25.84;46.27
50854;BME280;44154;45.506;-122.806;2022-09-29T15:08:57;101030.81;;;25.85;46.12
50854;BME280;44154;45.506;-122.806;2022-09-29T15:11:35;101026.94;;;25.86;46.42
50854;BME280;44154;45.506;-122.806;2022-09-29T15:14:24;101035.19;;;25.86;46.05
50854;BME280;44154;45.506;-122.806;2022-09-29T15:20:00;101039.06;;;25.90;46.52
50854;BME280;44154;45.506;-122.806;2022-09-29T15:25:34;101029.66;;;25.80;46.51
50854;BME280;44154;45.506;-122.806;2022-09-29T15:30:35;101052.84;;;25.95;46.81
50854;BME280;44154;45.506;-122.806;2022-09-29T15:35:50;101044.25;;;25.86;47.07
50854;BME280;44154;45.506;-122.806;2022-09-29T15:38:27;101056.88;;;25.87;46.80
50854;BME280;44154;45.506;-122.806;2022-09-29T15:41:00;101069.84;;;25.97;46.95
50854;BME280;44154;45.506;-122.806;2022-09-29T15:43:37;101076.75;;;26.00;46.84